Montello, WI

3:59 AM CDT on August 28, 2014 (GMT -0500)
WIDOT Montello - I-39 @ STH 23 East | Change Station
CLOSE
Current Station
Personal Weather Station
Location: Packwaukee, WI
Elevation: 850 ft
Nearby Weather Stations

Elev 850 ft 43.79 °N, 89.48 °W | Updated 42 minutes ago

Partly Cloudy
Partly Cloudy
60 °F
Feels Like 60 °F
N
1
Wind Variable Wind from West
Gusts 2.0 mph

Today
High -- | Low -- °F
--% Chance of Precip.
Yesterday
High -- | Low -- °F
Precip. -- in
6:16 AM 7:39 PM
Waxing Crescent, 7% visible
Pressure 30.14 in
Visibility 10.0 miles
Clouds Scattered Clouds 4400 ft
Dew Point 58 °F
Humidity 91%
Rainfall -999.00 in
Snow Depth Not available.
UV 0 out of 12
Pollen 9.60 out of 12
Air Quality Not available.
Flu Activity Not available.
METAR KY50 280756Z AUTO 00000KT 10SM -RA SCT044 14/13 A3016 RMK AO2 TSNO T01380133 P0000 SLP206

More Conditions Fewer Conditions

Pressure 30.14 in
Visibility 10.0 miles
Clouds Scattered Clouds 4400 ft
Dew Point 58 °F
Humidity 91%
Rainfall -999.00 in
Snow Depth Not available.
UV 0 out of 12
Pollen 9.60 out of 12
Air Quality Not available.
Flu Activity Not available.
METAR KY50 280756Z AUTO 00000KT 10SM -RA SCT044 14/13 A3016 RMK AO2 TSNO T01380133 P0000 SLP206

More Conditions Fewer Conditions

Nowcast | as of 3:12 am CDT on August 28, 2014

Look for patches of fog for the rest of the overnight hours across southern Wisconsin. Some locally dense fog will be found in the Wisconsin River Valley and other low-lying rural locations. Motorists should be alert for rapidly changing visibilities while traveling for the remaining overnight hours.

×

10-Day Weather Forecast

Almanac

Astronomy

Aug. 28, 2014 Rise Set
Actual Time 6:16 AM CDT 7:39 PM CDT
Civil Twilight 5:46 AM CDT 8:09 PM CDT
Nautical Twilight 5:10 AM CDT 8:45 PM CDT
Astronomical Twilight 4:31 AM CDT 9:23 PM CDT
Moon 9:15 AM CDT 8:56 PM CDT
Length of Visible Light 14h 23m
Length of Day
13h 23m
Tomorrow will be 2m 51s shorter.
Waxing Crescent, 7% of the Moon is Illuminated
Today
Waxing Crescent
Sep 2
First Quarter
Sep 8
Full
Sep 15
Last Quarter
Sep 24
New

Today's Extremes

State Highs State Lows

Community

WunderPhotos

Upload Photos

1,747,918 photos uploaded!

Nearby

Snow Depth

Station Depth Elevation
No new snow has been reported.

Earthquake Activity

City Distance Mag. Time & Date
No recent earthquake activity has been reported nearby.
Minimum magnitude displayed is 2.5.

Coastal Water Temperatures

Place Temperature
No Stations Reporting

Nearby Weather Stations